CheckWX is a tool to help pilots better visualize weather data.  It is not intended as a substitute for an official pre-flight weather briefing.

07:17:19 UTC

KHIF TAF
Hill AFB Airport
Ogden, Utah, USA
TAF KHIF 180500Z 1805/1911 06010G18KT 9999 SKC QNH2998INS BECMG 1817/1818 18012KT 9999 SKC QNH2987INS BECMG 1902/1903 06012G18KT 9999 SKC QNH2985INS TX23/1821Z TN06/1812Z

Sep-18@
05:00 UTC

Sep-18 @ 05:00 UTC

Sep-18@
17:00 UTC

Sep-18 @ 17:00 UTC

TAF KHIF 180500Z 1805/1911 06010G18KT 9999 SKC QNH2998INS
Wind
  • 060° at 10 KTS
  • {Gusting to 18 KTS
Cloud Levels
  • Clear skies

Sep-18@
17:00 UTC

Sep-18 @ 17:00 UTC

Sep-19@
02:00 UTC

Sep-19 @ 02:00 UTC

BECMG 1817/1818 18012KT 9999 SKC QNH2987INS

Becoming

Becoming Conditions expected by Wed, Sep 18, 2019 @ 18:00 UTC

Wind
  • 180° at 12 KTS
Cloud Levels
  • Clear skies

Sep-19@
02:00 UTC

Sep-19 @ 02:00 UTC

Sep-19@
11:00 UTC

Sep-19 @ 11:00 UTC

BECMG 1902/1903 06012G18KT 9999 SKC QNH2985INS TX23/1821Z TN06/1812Z

Becoming

Becoming Conditions expected by Thu, Sep 19, 2019 @ 03:00 UTC

Wind
  • 060° at 12 KTS
  • {Gusting to 18 KTS
Cloud Levels
  • Clear skies